CAMANCHE RESERVOIR (CMN)

Elevation: 236' · MOKELUMNE R basin · Operator: East Bay Municipal Utility District

Provisional data, subject to change.
Query executed Saturday at 22:23:56   clock

Select a sensor type for a plot of data.
Note: Reservoir Flows are daily averages.

Earlier

Date RES ELE    STORAGE    RES CHG    TOC STO    ABV TOC    OUTFLOW    INFLOW   
 FEET   AF   AF   AF   AF   CFS   CFS  
07/01/2016 223.10 329180 122 392100 -- 341 506
07/02/2016 222.99 328450 -867 392100 -- 340 12
07/03/2016 222.86 327580 -780 392100 -- 341 11
07/04/2016 222.74 326770 -821 392100 -65330 341 11
07/05/2016 222.74 326770 -14 392100 -65330 336 413
07/06/2016 222.73 326710 -79 392100 -65390 325 417
07/07/2016 222.72 326640 -43 392100 -65460 326 405
07/08/2016 222.72 326640 -6 392100 -- 326 420
07/09/2016 222.62 325980 -666 392100 -- 326 11
07/10/2016 222.49 325110 -829 392100 -66990 325 11
07/11/2016 222.37 324310 -783 392100 -67790 325 11
07/12/2016 222.26 323580 -722 392100 -68520 325 11
07/13/2016 222.16 322920 -650 392100 -69180 317 11
07/14/2016 222.05 322190 -770 392100 -69910 311 11
07/15/2016 221.93 321390 -783 392100 -- 310 11
07/16/2016 221.83 320730 -700 390778 -- 310 11
07/17/2016 221.72 320010 -741 384312 -64302 311 11
07/18/2016 221.59 319150 -832 377555 -58405 311 11
07/19/2016 221.47 318360 -728 370819 -52459 321 11
07/20/2016 221.37 317700 -679 364010 -- 326 11
07/21/2016 221.25 316910 -764 357208 -40298 325 12
07/22/2016 221.14 316190 -709 350346 -- 325 11
07/23/2016 221.02 315400 -813 343785 -- 325 11
07/24/2016 220.91 314680 -702 337095 -22415 325 11
07/25/2016 220.80 313960 -711 385282 -16235 326 11
07/26/2016 220.69 313240 -716 392100 -10147 325 11
07/27/2016 220.58 312520 -736 398350 5431 325 11
07/28/2016 220.47 311800 -749 404600 -92800 325 11
07/29/2016 220.35 311046 -754 -- -- 326 0
07/30/2016 -- -- -- -- -- -- --

Later | Latest

Warning! This data is preliminary and subject to revision.

Show CMN Map | Plot CMN Data | 1 Month CMN Data | Real-Time CMN Data | CMN Info